Impacts TAF Board
For situational awareness. Not to be used for flight planning purposes.
IDs:

KVCT - Victoria Rgnl, TX, US

Issued at 0520 UTC 19 Aug 2019
Updated at 0550 UTC 19 Aug 2019
Potential Impact None Slight Moderate High
Time0451Z 19/06Z 19/07Z 19/08Z 19/09Z 19/10Z 19/11Z 19/12Z 19/13Z 19/14Z 19/15Z 19/16Z 19/17Z 19/18Z>>
Type OBS PRVL PRVL PRVL
  [TEMP]  
PRVL
  [TEMP]  
PRVL
  [TEMP]  
PRVL
  [TEMP]  
PRVL PRVL PRVL PRVL PRVL PRVL PRVL
VIS 10 >6 >6 >6 >6 >6 >6 >6 >6 >6 >6 >6 >6 >6
CIG -- -- -- --
  [20]  
--
  [20]  
--
  [20]  
--
  [20]  
-- -- 35 35 35 35 --
Cover CLR SCT SCT SCT
  [BKN]  
SCT
  [BKN]  
SCT
  [BKN]  
SCT
  [BKN]  
SCT SCT BKN BKN BKN BKN SCT
FltCat VFR VFR VFR VFR
  [MVFR]  
VFR
  [MVFR]  
VFR
  [MVFR]  
VFR
  [MVFR]  
VFR VFR VFR VFR VFR VFR VFR
WX -- -- -- --
  [--]  
--
  [--]  
--
  [--]  
--
  [--]  
-- -- VCSH VCSH VCSH VCSH VCTS
WDir 140 140 140 140
[140]
140
[140]
140
[140]
140
[140]
140 140 160 160 160 160 150
WSpd 8 8 8 8
  [8]  
8
  [8]  
8
  [8]  
8
  [8]  
8 8 8 8 8 8 10
WGst -- -- -- --
  [--]  
--
  [--]  
--
  [--]  
--
  [--]  
-- -- -- -- -- -- 18
Raw TAF
KVCT 190520Z 1906/2006 14008KT P6SM SCT020
  TEMPO 1908/1912 BKN020
  FM191400 16008KT P6SM VCSH BKN035
  FM191800 15010G18KT P6SM VCTS SCT040CB


Raw METAR
KVCT 190451Z AUTO 14008KT 10SM CLR 28/25 A2993 RMK AO2 SLP134 T02780250
KVCT 190351Z AUTO 13008KT 10SM CLR 28/25 A2993 RMK AO2 SLP132 T02830250
KVCT 190251Z AUTO 13008KT 10SM CLR 29/24 A2991 RMK AO2 SLP125 T02890244 53014

METAR Board
Radar Display
Forecast Discussion
For situational awareness. Not to be used for flight planning purposes.